Time;durP1;ratioP1;P1;durP2;ratioP2;P2;SDS_P1;SDS_P2;PMS_P1;PMS_P2;Temp;Humidity;BMP_temperature;BMP_pressure;BME280_temperature;BME280_humidity;BME280_pressure;Samples;Min_cycle;Max_cycle;Signal;HPM_P1;HPM_P2
2022/07/26 00:00:58;;;;;;;7.38;3.85;;;;;;;-141.48;100.00;69781.59;4971883;29;20433;-62
2022/07/26 00:03:28;;;;;;;6.93;5.65;;;;;;;-141.48;100.00;69781.59;4971204;29;20034;-62
2022/07/26 00:06:03;;;;;;;3.65;3.45;;;;;;;-141.48;100.00;69781.59;4970285;29;20054;-63
2022/07/26 00:08:36;;;;;;;11.02;4.10;;;;;;;-141.48;100.00;69781.59;4970169;29;20521;-62
2022/07/26 00:11:07;;;;;;;5.28;4.38;;;;;;;-141.48;100.00;69781.59;4970834;29;20030;-62
2022/07/26 00:13:37;;;;;;;2.97;2.78;;;;;;;-141.48;100.00;69781.59;4970189;29;20106;-62
2022/07/26 00:16:08;;;;;;;3.65;3.38;;;;;;;-141.48;100.00;69781.59;4970939;29;20039;-62
2022/07/26 00:18:39;;;;;;;9.50;4.22;;;;;;;-141.48;100.00;69781.59;4970333;29;20033;-63
2022/07/26 00:21:09;;;;;;;4.20;3.90;;;;;;;-141.48;100.00;69781.59;4971405;29;20058;-62
2022/07/26 00:23:40;;;;;;;10.85;6.95;;;;;;;-141.48;100.00;69781.59;4971097;29;20034;-63
2022/07/26 00:26:10;;;;;;;21.55;10.65;;;;;;;-141.48;100.00;69781.59;4972451;29;20038;-62
2022/07/26 00:28:41;;;;;;;22.85;9.65;;;;;;;-141.48;100.00;69781.59;4973570;29;20090;-62
2022/07/26 00:31:12;;;;;;;24.00;12.63;;;;;;;-141.48;100.00;69781.59;4972876;29;20088;-62
2022/07/26 00:33:42;;;;;;;25.92;11.30;;;;;;;-141.48;100.00;69781.59;4956047;29;20039;-63
2022/07/26 00:36:13;;;;;;;13.80;9.05;;;;;;;-141.48;100.00;69781.59;4973152;29;20460;-62
2022/07/26 00:38:43;;;;;;;24.08;9.77;;;;;;;-141.48;100.00;69781.59;4973481;29;20148;-62
2022/07/26 00:41:14;;;;;;;24.23;13.38;;;;;;;-141.48;100.00;69781.59;4959281;29;20073;-62
2022/07/26 00:43:55;;;;;;;22.15;11.43;;;;;;;-141.48;100.00;69781.59;4959205;29;20203;-62
2022/07/26 00:46:26;;;;;;;15.93;12.25;;;;;;;-141.48;100.00;69781.59;4975190;29;20065;-62
2022/07/26 00:48:57;;;;;;;17.08;12.18;;;;;;;-141.48;100.00;69781.59;4956368;29;20091;-62
2022/07/26 00:51:28;;;;;;;30.00;13.70;;;;;;;-141.48;100.00;69781.59;4972682;29;20034;-62
2022/07/26 00:53:58;;;;;;;22.17;11.98;;;;;;;-141.48;100.00;69781.59;4969265;29;20042;-61
2022/07/26 00:56:30;;;;;;;21.30;11.73;;;;;;;-141.48;100.00;69781.59;4969473;29;20027;-62
2022/07/26 00:59:01;;;;;;;19.80;11.93;;;;;;;-141.48;100.00;69781.59;4969539;29;20522;-61
2022/07/26 01:01:31;;;;;;;25.13;10.73;;;;;;;-141.48;100.00;69781.59;4969733;29;20054;-63
2022/07/26 01:04:02;;;;;;;18.60;8.95;;;;;;;-141.48;100.00;69781.59;4969112;29;20026;-61
2022/07/26 01:06:32;;;;;;;18.40;8.98;;;;;;;-141.48;100.00;69781.59;4969053;29;20092;-62
2022/07/26 01:09:04;;;;;;;16.50;7.30;;;;;;;-141.48;100.00;69781.59;4969216;29;20019;-62
2022/07/26 01:11:34;;;;;;;25.05;6.75;;;;;;;-141.48;100.00;69781.59;4968907;29;20031;-65
2022/07/26 01:14:05;;;;;;;11.18;6.30;;;;;;;-141.48;100.00;69781.59;4968413;29;20042;-61
2022/07/26 01:16:35;;;;;;;18.73;6.75;;;;;;;-141.48;100.00;69781.59;4968832;29;20027;-62
2022/07/26 01:19:06;;;;;;;14.20;5.32;;;;;;;-141.48;100.00;69781.59;4969183;29;20034;-61
2022/07/26 01:21:36;;;;;;;8.45;3.95;;;;;;;-141.48;100.00;69781.59;4968975;29;20374;-61
2022/07/26 01:24:06;;;;;;;6.00;5.25;;;;;;;-141.48;100.00;69781.59;4968292;29;20035;-61
2022/07/26 01:26:37;;;;;;;3.85;3.58;;;;;;;-141.48;100.00;69781.59;4968467;29;20433;-61
2022/07/26 01:29:07;;;;;;;7.82;4.47;;;;;;;-141.48;100.00;69781.59;4968336;29;20042;-61
2022/07/26 01:31:38;;;;;;;5.35;4.85;;;;;;;-141.48;100.00;69781.59;4968276;29;20027;-61
2022/07/26 01:34:08;;;;;;;9.85;5.30;;;;;;;-141.48;100.00;69781.59;4968630;29;20043;-61
2022/07/26 01:36:39;;;;;;;4.43;3.95;;;;;;;-141.48;100.00;69781.59;4969407;29;20027;-62
2022/07/26 01:39:09;;;;;;;7.15;4.70;;;;;;;-141.48;100.00;69781.59;4969503;29;20059;-62
2022/07/26 01:41:40;;;;;;;7.07;4.93;;;;;;;-141.48;100.00;69781.59;4969487;29;20037;-62
2022/07/26 01:44:10;;;;;;;4.75;3.67;;;;;;;-141.48;100.00;69781.59;4952425;29;20041;-62
2022/07/26 01:46:40;;;;;;;5.22;3.85;;;;;;;-141.48;100.00;69781.59;4970012;29;20050;-62
2022/07/26 01:49:11;;;;;;;11.35;5.13;;;;;;;-141.48;100.00;69781.59;4968754;29;20023;-62
2022/07/26 01:51:42;;;;;;;4.43;4.22;;;;;;;-141.48;100.00;69781.59;4968923;29;20045;-62
2022/07/26 01:54:12;;;;;;;4.85;4.55;;;;;;;-141.48;100.00;69781.59;4969061;29;20046;-62
2022/07/26 01:56:43;;;;;;;10.73;5.72;;;;;;;-141.48;100.00;69781.59;4968786;29;20059;-62
2022/07/26 01:59:13;;;;;;;7.53;3.47;;;;;;;-141.48;100.00;69781.59;4968894;29;20031;-62
2022/07/26 02:01:43;;;;;;;4.60;4.18;;;;;;;-141.48;100.00;69781.59;4968816;29;20046;-62
2022/07/26 02:07:03;;;;;;;10.50;4.87;;;;;;;-141.48;100.00;69781.59;4969553;29;20050;-61
2022/07/26 02:09:33;;;;;;;4.78;4.38;;;;;;;-141.48;100.00;69781.59;4970858;29;20026;-62
2022/07/26 02:12:04;;;;;;;6.85;4.10;;;;;;;-141.48;100.00;69781.59;4972178;29;20113;-61
2022/07/26 02:14:34;;;;;;;4.65;3.92;;;;;;;-141.48;100.00;69781.59;4971635;29;20113;-62
2022/07/26 02:17:05;;;;;;;7.03;3.67;;;;;;;-141.48;100.00;69781.59;4955699;29;20127;-62
2022/07/26 02:19:35;;;;;;;5.50;4.97;;;;;;;-141.48;100.00;69781.59;4972167;29;20468;-62
2022/07/26 02:22:06;;;;;;;6.20;5.13;;;;;;;-141.48;100.00;69781.59;4973175;29;20178;-63
2022/07/26 02:24:37;;;;;;;6.72;3.80;;;;;;;-141.48;100.00;69781.59;4972352;29;20042;-62
2022/07/26 02:27:07;;;;;;;10.38;6.30;;;;;;;-141.48;100.00;69781.59;4971769;29;20034;-64
2022/07/26 02:29:38;;;;;;;8.50;5.05;;;;;;;-141.48;100.00;69781.59;4972690;29;20365;-62
2022/07/26 02:32:09;;;;;;;8.88;4.68;;;;;;;-141.48;100.00;69781.59;4972872;29;20022;-63
2022/07/26 02:34:40;;;;;;;7.97;4.90;;;;;;;-141.48;100.00;69781.59;4955975;29;20031;-64
2022/07/26 02:37:10;;;;;;;4.72;4.18;;;;;;;-141.48;100.00;69781.59;4972699;29;20045;-62
2022/07/26 02:39:41;;;;;;;6.05;3.40;;;;;;;-141.48;100.00;69781.59;4972769;29;20034;-62
2022/07/26 02:42:11;;;;;;;6.82;4.35;;;;;;;-141.48;100.00;69781.59;4972326;29;20095;-62
2022/07/26 02:44:41;;;;;;;7.03;4.85;;;;;;;-141.48;100.00;69781.59;4971950;29;20034;-61
2022/07/26 02:47:12;;;;;;;9.45;5.80;;;;;;;-141.48;100.00;69781.59;4971946;29;20150;-62
2022/07/26 02:49:42;;;;;;;5.53;4.55;;;;;;;-141.48;100.00;69781.59;4972232;29;20034;-62
2022/07/26 02:52:13;;;;;;;3.75;3.38;;;;;;;-141.48;100.00;69781.59;4956092;29;20035;-62
2022/07/26 02:54:43;;;;;;;13.73;4.97;;;;;;;-141.48;100.00;69781.59;4972297;29;20095;-62
2022/07/26 02:57:14;;;;;;;8.07;4.72;;;;;;;-141.48;100.00;69781.59;4955496;29;20031;-63
2022/07/26 02:59:44;;;;;;;8.13;4.38;;;;;;;-141.48;100.00;69781.59;4956135;29;20023;-61
2022/07/26 03:02:14;;;;;;;4.68;4.32;;;;;;;-141.48;100.00;69781.59;4972231;29;20043;-62
2022/07/26 03:04:45;;;;;;;6.72;3.47;;;;;;;-141.48;100.00;69781.59;4970291;29;20038;-62
2022/07/26 03:07:15;;;;;;;5.28;4.85;;;;;;;-141.48;100.00;69781.59;4969468;29;20042;-61
2022/07/26 03:09:45;;;;;;;5.10;4.70;;;;;;;-141.48;100.00;69781.59;4969581;29;20099;-62
2022/07/26 03:12:16;;;;;;;4.68;4.28;;;;;;;-141.48;100.00;69781.59;4969784;29;20377;-62
2022/07/26 03:14:46;;;;;;;13.35;5.10;;;;;;;-141.48;100.00;69781.59;4969221;29;20034;-62
2022/07/26 03:17:17;;;;;;;6.53;4.47;;;;;;;-141.48;100.00;69781.59;4969830;29;20031;-62
2022/07/26 03:19:47;;;;;;;6.82;5.28;;;;;;;-141.48;100.00;69781.59;4969633;29;20030;-62
2022/07/26 03:22:18;;;;;;;4.82;4.43;;;;;;;-141.48;100.00;69781.59;4970541;29;20065;-62
2022/07/26 03:24:48;;;;;;;5.57;5.18;;;;;;;-141.48;100.00;69781.59;4970144;29;20065;-61
2022/07/26 03:27:18;;;;;;;9.32;6.03;;;;;;;-141.48;100.00;69781.59;4970573;29;20039;-62
2022/07/26 03:29:49;;;;;;;5.55;4.78;;;;;;;-141.48;100.00;69781.59;4971538;29;20469;-63
2022/07/26 03:32:19;;;;;;;12.13;5.60;;;;;;;-141.48;100.00;69781.59;4971834;29;20101;-62
2022/07/26 03:34:50;;;;;;;8.07;5.63;;;;;;;-141.48;100.00;69781.59;4971406;29;20030;-63
2022/07/26 03:37:20;;;;;;;6.15;5.55;;;;;;;-141.48;100.00;69781.59;4970391;29;20042;-63
2022/07/26 03:39:51;;;;;;;7.47;5.47;;;;;;;-141.48;100.00;69781.59;4953442;29;20046;-62
2022/07/26 03:42:21;;;;;;;10.93;5.28;;;;;;;-141.48;100.00;69781.59;4970402;29;20074;-62
2022/07/26 03:44:51;;;;;;;7.05;5.03;;;;;;;-141.48;100.00;69781.59;4970719;29;20026;-63
2022/07/26 03:47:22;;;;;;;5.45;4.65;;;;;;;-141.48;100.00;69781.59;4970726;29;20405;-63
2022/07/26 03:49:52;;;;;;;10.23;4.65;;;;;;;-141.48;100.00;69781.59;4971779;29;20097;-62
2022/07/26 03:52:22;;;;;;;10.63;5.18;;;;;;;-141.48;100.00;69781.59;4971274;29;20030;-63
2022/07/26 03:54:53;;;;;;;13.55;5.05;;;;;;;-141.48;100.00;69781.59;4970489;29;20035;-63
2022/07/26 03:57:23;;;;;;;6.18;5.18;;;;;;;-141.48;100.00;69781.59;4970565;29;20097;-63
2022/07/26 03:59:54;;;;;;;5.13;4.72;;;;;;;-141.48;100.00;69781.59;4971152;29;20027;-63
2022/07/26 04:02:24;;;;;;;25.00;5.75;;;;;;;-141.48;100.00;69781.59;4970005;29;20396;-63
2022/07/26 04:04:55;;;;;;;15.05;6.35;;;;;;;-141.48;100.00;69781.59;4953469;29;20038;-61
2022/07/26 04:07:25;;;;;;;12.43;5.40;;;;;;;-141.48;100.00;69781.59;4969908;29;20499;-61
2022/07/26 04:09:56;;;;;;;4.50;4.20;;;;;;;-141.48;100.00;69781.59;4970166;29;20035;-63
2022/07/26 04:12:26;;;;;;;7.82;5.70;;;;;;;-141.48;100.00;69781.59;4970359;29;20105;-61
2022/07/26 04:14:56;;;;;;;5.25;4.60;;;;;;;-141.48;100.00;69781.59;4969788;29;20112;-62
2022/07/26 04:17:27;;;;;;;11.50;7.10;;;;;;;-141.48;100.00;69781.59;4953422;29;20049;-61
2022/07/26 04:19:57;;;;;;;15.45;7.00;;;;;;;-141.48;100.00;69781.59;4969535;29;20023;-62
2022/07/26 04:22:27;;;;;;;8.70;7.20;;;;;;;-141.48;100.00;69781.59;4969506;29;20031;-62
2022/07/26 04:24:58;;;;;;;6.55;4.95;;;;;;;-141.48;100.00;69781.59;4968761;29;20138;-62
2022/07/26 04:27:29;;;;;;;7.00;5.32;;;;;;;-141.48;100.00;69781.59;4969594;29;20039;-62
2022/07/26 04:29:59;;;;;;;10.55;5.78;;;;;;;-141.48;100.00;69781.59;4969407;29;20062;-63
2022/07/26 04:32:30;;;;;;;8.35;5.43;;;;;;;-141.48;100.00;69781.59;4969852;29;20480;-62
2022/07/26 04:35:00;;;;;;;10.10;7.13;;;;;;;-141.48;100.00;69781.59;4969724;29;20503;-62
2022/07/26 04:37:38;;;;;;;10.57;6.03;;;;;;;-141.48;100.00;69781.59;4969907;29;20030;-62
2022/07/26 04:40:10;;;;;;;15.95;5.53;;;;;;;-141.48;100.00;69781.59;4970278;29;20050;-62
2022/07/26 04:42:40;;;;;;;10.20;6.03;;;;;;;-141.48;100.00;69781.59;4969953;29;20031;-63
2022/07/26 04:45:12;;;;;;;8.45;5.97;;;;;;;-141.48;100.00;69781.59;4969201;29;20030;-62
2022/07/26 04:47:43;;;;;;;9.10;4.85;;;;;;;-141.48;100.00;69781.59;4970093;29;20035;-62
2022/07/26 04:50:14;;;;;;;6.05;5.55;;;;;;;-141.48;100.00;69781.59;4971358;29;20035;-63
2022/07/26 04:52:45;;;;;;;6.07;4.38;;;;;;;-141.48;100.00;69781.59;4971190;29;20038;-62
2022/07/26 04:55:17;;;;;;;11.70;5.80;;;;;;;-141.48;100.00;69781.59;4965670;24;20054;-64
2022/07/26 04:57:48;;;;;;;9.85;6.15;;;;;;;-141.48;100.00;69781.59;4969178;29;20054;-64
2022/07/26 05:00:22;;;;;;;10.27;6.25;;;;;;;-141.48;100.00;69781.59;4969612;29;20062;-64
2022/07/26 05:02:55;;;;;;;16.50;5.35;;;;;;;-141.48;100.00;69781.59;4969581;29;20031;-64
2022/07/26 05:05:29;;;;;;;7.72;6.07;;;;;;;-141.48;100.00;69781.59;4969745;29;20030;-65
2022/07/26 05:08:02;;;;;;;19.83;8.10;;;;;;;-141.48;100.00;69781.59;4969115;29;20459;-64
2022/07/26 05:10:36;;;;;;;11.45;5.45;;;;;;;-141.48;100.00;69781.59;4969338;29;20019;-65
2022/07/26 05:13:07;;;;;;;6.13;5.47;;;;;;;-141.48;100.00;69781.59;4969652;29;20551;-64
2022/07/26 05:15:37;;;;;;;8.85;4.55;;;;;;;-141.48;100.00;69781.59;4969390;29;20114;-63
2022/07/26 05:18:09;;;;;;;16.98;8.13;;;;;;;-141.48;100.00;69781.59;4969329;29;20034;-65
2022/07/26 05:20:39;;;;;;;6.38;5.07;;;;;;;-141.48;100.00;69781.59;4969147;29;20109;-65
2022/07/26 05:23:10;;;;;;;10.93;6.43;;;;;;;-141.48;100.00;69781.59;4969224;29;20039;-64
2022/07/26 05:25:40;;;;;;;6.07;4.05;;;;;;;-141.48;100.00;69781.59;4952867;29;20500;-64
2022/07/26 05:28:11;;;;;;;13.80;6.35;;;;;;;-141.48;100.00;69781.59;4969445;29;20544;-65
2022/07/26 05:30:41;;;;;;;8.05;5.28;;;;;;;-141.48;100.00;69781.59;4953166;29;20114;-64
2022/07/26 05:33:11;;;;;;;7.45;6.82;;;;;;;-141.48;100.00;69781.59;4969068;29;20487;-65
2022/07/26 05:35:42;;;;;;;6.63;5.07;;;;;;;-141.48;100.00;69781.59;4968937;29;20064;-65
2022/07/26 05:38:13;;;;;;;4.70;4.25;;;;;;;-141.48;100.00;69781.59;4969343;29;20137;-64
2022/07/26 05:40:43;;;;;;;12.30;6.38;;;;;;;-141.48;100.00;69781.59;4969191;29;20062;-63
2022/07/26 05:43:14;;;;;;;8.85;5.10;;;;;;;-141.48;100.00;69781.59;4969206;29;20403;-64
2022/07/26 05:45:44;;;;;;;6.47;5.53;;;;;;;-141.48;100.00;69781.59;4972473;29;20037;-64
2022/07/26 05:48:14;;;;;;;6.72;4.90;;;;;;;-141.48;100.00;69781.59;4956398;29;20027;-65
2022/07/26 05:50:45;;;;;;;11.27;6.38;;;;;;;-141.48;100.00;69781.59;4972709;29;20049;-65
2022/07/26 05:53:15;;;;;;;15.27;7.40;;;;;;;-141.48;100.00;69781.59;4972376;29;20038;-65
2022/07/26 05:55:46;;;;;;;10.77;4.72;;;;;;;-141.48;100.00;69781.59;4972537;29;20066;-64
2022/07/26 05:58:16;;;;;;;10.05;5.68;;;;;;;-141.48;100.00;69781.59;4956506;29;20038;-64
2022/07/26 06:00:47;;;;;;;12.07;5.90;;;;;;;-141.48;100.00;69781.59;4972505;29;20038;-65
2022/07/26 06:03:23;;;;;;;8.23;5.82;;;;;;;-141.48;100.00;69781.59;4956247;29;20035;-64
2022/07/26 06:05:56;;;;;;;12.35;6.53;;;;;;;-141.48;100.00;69781.59;4972772;29;20031;-65
2022/07/26 06:08:26;;;;;;;6.10;5.60;;;;;;;-141.48;100.00;69781.59;4972261;29;20034;-65
2022/07/26 06:10:57;;;;;;;8.95;5.85;;;;;;;-141.48;100.00;69781.59;4972573;29;20503;-65
2022/07/26 06:13:28;;;;;;;11.98;6.43;;;;;;;-141.48;100.00;69781.59;4971970;29;20488;-65
2022/07/26 06:15:59;;;;;;;5.45;4.95;;;;;;;-141.48;100.00;69781.59;4972335;29;20377;-65
2022/07/26 06:18:30;;;;;;;12.93;7.97;;;;;;;-141.48;100.00;69781.59;4972220;29;20091;-65
2022/07/26 06:21:00;;;;;;;14.80;6.40;;;;;;;-141.48;100.00;69781.59;4971919;29;20477;-64
2022/07/26 06:23:31;;;;;;;9.45;7.18;;;;;;;-141.48;100.00;69781.59;4971784;29;20117;-64
2022/07/26 06:26:03;;;;;;;5.95;5.18;;;;;;;-141.48;100.00;69781.59;4972131;29;20381;-65
2022/07/26 06:28:34;;;;;;;6.72;6.22;;;;;;;-141.48;100.00;69781.59;4972042;29;20062;-64
2022/07/26 06:31:04;;;;;;;8.85;5.40;;;;;;;-141.48;100.00;69781.59;4972007;29;20031;-64
2022/07/26 06:33:35;;;;;;;6.70;5.95;;;;;;;-141.48;100.00;69781.59;4971485;29;20035;-64
2022/07/26 06:36:06;;;;;;;6.85;6.35;;;;;;;-141.48;100.00;69781.59;4971836;29;20035;-64
2022/07/26 06:38:36;;;;;;;8.30;5.35;;;;;;;-141.48;100.00;69781.59;4971623;29;20101;-65
2022/07/26 06:41:07;;;;;;;9.23;6.05;;;;;;;-141.48;100.00;69781.59;4971703;29;20065;-65
2022/07/26 06:43:39;;;;;;;12.25;6.15;;;;;;;-141.48;100.00;69781.59;4971139;29;20166;-65
2022/07/26 06:46:09;;;;;;;5.32;4.13;;;;;;;-141.48;100.00;69781.59;4971552;29;20039;-68
2022/07/26 06:48:40;;;;;;;5.32;5.03;;;;;;;-141.48;100.00;69781.59;4971671;29;20545;-64
2022/07/26 06:51:10;;;;;;;8.25;5.63;;;;;;;-141.48;100.00;69781.59;4971592;29;20045;-64
2022/07/26 06:53:40;;;;;;;6.80;5.20;;;;;;;-141.48;100.00;69781.59;4954933;29;20531;-65
2022/07/26 06:56:13;;;;;;;5.28;4.20;;;;;;;-141.48;100.00;69781.59;4971202;29;20030;-62
2022/07/26 06:58:44;;;;;;;5.40;4.88;;;;;;;-141.48;100.00;69781.59;4971486;29;20087;-63
2022/07/26 07:01:14;;;;;;;8.80;5.13;;;;;;;-141.48;100.00;69781.59;4971646;29;20030;-64
2022/07/26 07:03:46;;;;;;;7.18;5.13;;;;;;;-141.48;100.00;69781.59;4971374;29;20026;-64
2022/07/26 07:06:17;;;;;;;13.32;6.65;;;;;;;-141.48;100.00;69781.59;4971268;29;20035;-64
2022/07/26 07:08:48;;;;;;;10.60;5.10;;;;;;;-141.48;100.00;69781.59;4955075;29;20053;-65
2022/07/26 07:11:18;;;;;;;6.90;6.25;;;;;;;-141.48;100.00;69781.59;4955213;29;20038;-64
2022/07/26 07:13:49;;;;;;;7.43;6.30;;;;;;;-141.48;100.00;69781.59;4970760;29;20027;-64
2022/07/26 07:16:19;;;;;;;6.88;5.50;;;;;;;-141.48;100.00;69781.59;4971352;29;20067;-63
2022/07/26 07:18:50;;;;;;;5.95;5.43;;;;;;;-141.48;100.00;69781.59;4971227;29;20038;-64
2022/07/26 07:21:20;;;;;;;4.72;4.35;;;;;;;-141.48;100.00;69781.59;4970874;29;20050;-64
2022/07/26 07:23:50;;;;;;;7.57;6.90;;;;;;;-141.48;100.00;69781.59;4970713;29;20088;-63
2022/07/26 07:26:21;;;;;;;3.75;3.65;;;;;;;-141.48;100.00;69781.59;4971192;29;20027;-65
2022/07/26 07:28:51;;;;;;;5.20;4.80;;;;;;;-141.48;100.00;69781.59;4971081;29;20405;-64
2022/07/26 07:31:22;;;;;;;11.43;5.25;;;;;;;-141.48;100.00;69781.59;4970916;29;20108;-65
2022/07/26 07:33:52;;;;;;;4.07;3.85;;;;;;;-141.48;100.00;69781.59;4970492;29;20026;-65
2022/07/26 07:36:23;;;;;;;8.43;4.93;;;;;;;-141.48;100.00;69781.59;4970855;29;20370;-64
2022/07/26 07:38:53;;;;;;;4.40;4.10;;;;;;;-141.48;100.00;69781.59;4970843;29;20119;-64
2022/07/26 07:41:24;;;;;;;5.40;4.50;;;;;;;-141.48;100.00;69781.59;4970932;29;20030;-64
2022/07/26 07:43:54;;;;;;;6.25;5.28;;;;;;;-141.48;100.00;69781.59;4954180;29;20519;-64
2022/07/26 07:46:25;;;;;;;5.25;4.75;;;;;;;-141.48;100.00;69781.59;4971075;29;20027;-64
2022/07/26 07:48:58;;;;;;;4.15;3.05;;;;;;;-141.48;100.00;69781.59;4954488;29;20023;-64
2022/07/26 07:51:28;;;;;;;5.25;4.88;;;;;;;-141.48;100.00;69781.59;4970554;29;20503;-63
2022/07/26 07:53:59;;;;;;;7.68;4.80;;;;;;;-141.48;100.00;69781.59;4970025;29;20039;-64
2022/07/26 07:56:29;;;;;;;5.85;4.72;;;;;;;-141.48;100.00;69781.59;4970610;29;20034;-64
2022/07/26 07:58:59;;;;;;;16.65;5.72;;;;;;;-141.48;100.00;69781.59;4970433;29;20038;-64
2022/07/26 08:01:30;;;;;;;5.00;4.53;;;;;;;-141.48;100.00;69781.59;4970501;29;20373;-66
2022/07/26 08:04:00;;;;;;;7.75;5.22;;;;;;;-141.48;100.00;69781.59;4970211;29;20058;-66
2022/07/26 08:06:31;;;;;;;4.47;4.10;;;;;;;-141.48;100.00;69781.59;4969973;29;20106;-64
2022/07/26 08:09:02;;;;;;;5.60;4.32;;;;;;;-141.48;100.00;69781.59;4939233;29;20027;-63
2022/07/26 08:11:33;;;;;;;7.03;4.05;;;;;;;-141.48;100.00;69781.59;4970328;29;20056;-64
2022/07/26 08:14:03;;;;;;;4.18;3.88;;;;;;;-141.48;100.00;69781.59;4969968;29;20497;-64
2022/07/26 08:16:33;;;;;;;5.95;5.18;;;;;;;-141.48;100.00;69781.59;4953771;29;20103;-64
2022/07/26 08:19:04;;;;;;;5.63;4.22;;;;;;;-141.48;100.00;69781.59;4970325;29;20023;-62
2022/07/26 08:21:34;;;;;;;7.82;4.93;;;;;;;-141.48;100.00;69781.59;4970165;29;20541;-64
2022/07/26 08:24:05;;;;;;;4.90;4.50;;;;;;;-141.48;100.00;69781.59;4953641;29;20031;-64
2022/07/26 08:26:36;;;;;;;12.95;4.57;;;;;;;-141.48;100.00;69781.59;4954198;29;20039;-64
2022/07/26 08:29:07;;;;;;;7.13;5.72;;;;;;;-141.48;100.00;69781.59;4970249;29;20031;-64
2022/07/26 08:31:37;;;;;;;4.63;4.30;;;;;;;-141.48;100.00;69781.59;4970107;29;20038;-64
2022/07/26 08:34:07;;;;;;;3.97;3.47;;;;;;;-141.48;100.00;69781.59;4969843;29;20023;-64
2022/07/26 08:36:38;;;;;;;6.55;3.47;;;;;;;-141.48;100.00;69781.59;4970029;29;20057;-64
2022/07/26 08:39:08;;;;;;;4.22;3.92;;;;;;;-141.48;100.00;69781.59;4970140;29;20377;-64
2022/07/26 08:41:40;;;;;;;6.68;4.80;;;;;;;-141.48;100.00;69781.59;4969868;29;20042;-65
2022/07/26 08:44:11;;;;;;;4.53;4.30;;;;;;;-141.48;100.00;69781.59;4969531;29;20110;-65
2022/07/26 08:46:41;;;;;;;5.18;4.88;;;;;;;-141.48;100.00;69781.59;4969927;29;20050;-65
2022/07/26 08:49:13;;;;;;;6.93;5.68;;;;;;;-141.48;100.00;69781.59;4970371;29;20544;-65
2022/07/26 08:51:44;;;;;;;4.15;3.92;;;;;;;-141.48;100.00;69781.59;4969697;29;20041;-64
2022/07/26 08:54:15;;;;;;;3.78;3.53;;;;;;;-141.48;100.00;69781.59;4969513;29;20478;-64
2022/07/26 08:56:51;;;;;;;5.60;4.78;;;;;;;-141.48;100.00;69781.59;4969781;29;20034;-66
2022/07/26 08:59:21;;;;;;;7.68;4.78;;;;;;;-141.48;100.00;69781.59;4970170;29;20038;-64
2022/07/26 09:01:56;;;;;;;5.20;4.00;;;;;;;-141.48;100.00;69781.59;4970257;29;20109;-70
2022/07/26 09:04:29;;;;;;;10.20;4.38;;;;;;;-141.48;100.00;69781.59;4969412;29;20035;-64
2022/07/26 09:07:06;;;;;;;3.65;3.40;;;;;;;-141.48;100.00;69781.59;4969604;29;20523;-64
2022/07/26 09:09:39;;;;;;;3.95;3.63;;;;;;;-141.48;100.00;69781.59;4969705;29;20038;-63
2022/07/26 09:12:19;;;;;;;4.05;3.38;;;;;;;-141.48;100.00;69781.59;4970197;29;20106;-65
2022/07/26 09:14:50;;;;;;;4.68;4.38;;;;;;;-141.48;100.00;69781.59;4968831;29;20038;-65
2022/07/26 09:17:23;;;;;;;4.60;4.20;;;;;;;-141.48;100.00;69781.59;4970087;29;20031;-63
2022/07/26 09:20:08;;;;;;;3.72;3.60;;;;;;;-141.48;100.00;69781.59;4973413;29;20080;-64
2022/07/26 09:23:02;;;;;;;3.95;3.75;;;;;;;-141.48;100.00;69781.59;4973370;29;20031;-63
2022/07/26 09:25:39;;;;;;;3.65;3.35;;;;;;;-141.48;100.00;69781.59;4972742;29;20034;-64
2022/07/26 09:28:28;;;;;;;4.03;3.83;;;;;;;-141.48;100.00;69781.59;4973412;29;20346;-64
2022/07/26 09:31:01;;;;;;;4.68;3.00;;;;;;;-141.48;100.00;69781.59;4973098;29;20031;-64
2022/07/26 09:33:46;;;;;;;5.18;3.47;;;;;;;-141.48;100.00;69781.59;4972614;29;20027;-62
2022/07/26 09:36:17;;;;;;;8.10;4.00;;;;;;;-141.48;100.00;69781.59;4956994;29;20177;-64
2022/07/26 09:38:51;;;;;;;6.53;3.03;;;;;;;-141.48;100.00;69781.59;4972961;29;20030;-62
2022/07/26 09:41:35;;;;;;;4.93;3.03;;;;;;;-141.48;100.00;69781.59;4956731;29;20035;-64
2022/07/26 09:44:22;;;;;;;3.58;3.35;;;;;;;-141.48;100.00;69781.59;4956522;29;20038;-64
2022/07/26 09:46:55;;;;;;;3.05;2.95;;;;;;;-141.48;100.00;69781.59;4972935;29;20511;-65
2022/07/26 09:49:26;;;;;;;2.95;2.75;;;;;;;-141.48;100.00;69781.59;4972876;29;20039;-66
2022/07/26 09:51:56;;;;;;;2.78;2.65;;;;;;;-141.48;100.00;69781.59;4972838;29;20085;-65
2022/07/26 09:54:34;;;;;;;2.67;2.58;;;;;;;-141.48;100.00;69781.59;4972232;29;20042;-65
2022/07/26 09:57:04;;;;;;;12.07;4.63;;;;;;;-141.48;100.00;69781.59;4972775;29;20027;-67
2022/07/26 09:59:34;;;;;;;3.50;3.22;;;;;;;-141.48;100.00;69781.59;4956423;29;20034;-65
2022/07/26 10:02:05;;;;;;;2.33;2.22;;;;;;;-141.48;100.00;69781.59;4972625;29;20037;-66
2022/07/26 10:04:35;;;;;;;4.00;2.70;;;;;;;-141.48;100.00;69781.59;4972195;29;20250;-62
2022/07/26 10:07:06;;;;;;;4.00;3.05;;;;;;;-141.48;100.00;69781.59;4956137;29;20031;-65
2022/07/26 10:09:53;;;;;;;4.45;4.07;;;;;;;-141.48;100.00;69781.59;4972535;29;20026;-66
2022/07/26 10:12:27;;;;;;;3.33;3.17;;;;;;;-141.48;100.00;69781.59;4972594;29;20034;-66
2022/07/26 10:14:58;;;;;;;2.17;1.98;;;;;;;-141.48;100.00;69781.59;4955905;29;20062;-64
2022/07/26 10:17:28;;;;;;;2.35;2.25;;;;;;;-141.48;100.00;69781.59;4972603;29;20362;-64
2022/07/26 10:20:29;;;;;;;7.70;4.82;;;;;;;-141.48;100.00;69781.59;4972187;29;20088;-65
2022/07/26 10:23:00;;;;;;;2.85;2.75;;;;;;;-141.48;100.00;69781.59;4972236;29;20400;-65
2022/07/26 10:25:30;;;;;;;3.35;3.05;;;;;;;-141.48;100.00;69781.59;4971887;29;20100;-65
2022/07/26 10:28:00;;;;;;;5.63;2.78;;;;;;;-141.48;100.00;69781.59;4972319;29;20027;-64
2022/07/26 10:30:31;;;;;;;3.05;2.95;;;;;;;-141.48;100.00;69781.59;4971527;29;20019;-64
2022/07/26 10:33:14;;;;;;;3.28;2.72;;;;;;;-141.48;100.00;69781.59;4972406;29;20035;-63
2022/07/26 10:35:45;;;;;;;3.28;3.17;;;;;;;-141.48;100.00;69781.59;4971985;29;20092;-64
2022/07/26 10:38:25;;;;;;;3.00;2.80;;;;;;;-141.48;100.00;69781.59;4955783;29;20026;-62
2022/07/26 10:41:07;;;;;;;3.13;3.03;;;;;;;-141.48;100.00;69781.59;4972169;29;20037;-63
2022/07/26 10:43:38;;;;;;;3.75;3.45;;;;;;;-141.48;100.00;69781.59;4971758;29;20095;-63
2022/07/26 10:46:14;;;;;;;4.88;4.15;;;;;;;-141.48;100.00;69781.59;4972089;29;20550;-64
2022/07/26 10:49:02;;;;;;;6.40;3.47;;;;;;;-141.48;100.00;69781.59;4971846;29;20073;-64
2022/07/26 10:51:38;;;;;;;4.22;3.95;;;;;;;-141.48;100.00;69781.59;4956123;29;20030;-63
2022/07/26 10:54:11;;;;;;;2.58;2.55;;;;;;;-141.48;100.00;69781.59;4984519;24;20022;-62
2022/07/26 10:56:41;;;;;;;2.90;2.80;;;;;;;-141.48;100.00;69781.59;4969733;29;20595;-63
2022/07/26 10:59:12;;;;;;;5.10;4.80;;;;;;;-141.48;100.00;69781.59;4970192;29;20069;-63
2022/07/26 11:01:44;;;;;;;5.75;5.43;;;;;;;-141.48;100.00;69781.59;4971301;29;20050;-67
2022/07/26 11:04:21;;;;;;;5.97;5.75;;;;;;;-141.48;100.00;69781.59;4970502;29;20118;-66
2022/07/26 11:06:52;;;;;;;4.68;4.47;;;;;;;-141.48;100.00;69781.59;4970050;29;20031;-66
2022/07/26 11:09:22;;;;;;;4.97;4.80;;;;;;;-141.48;100.00;69781.59;4970175;29;20484;-65
2022/07/26 11:11:52;;;;;;;4.28;4.07;;;;;;;-141.48;100.00;69781.59;4970069;29;20026;-67
2022/07/26 11:14:24;;;;;;;5.53;5.13;;;;;;;-141.48;100.00;69781.59;4969821;29;20041;-64
2022/07/26 11:16:55;;;;;;;4.45;4.00;;;;;;;-141.48;100.00;69781.59;4970853;29;20039;-64
2022/07/26 11:19:26;;;;;;;4.47;4.38;;;;;;;-141.48;100.00;69781.59;4970557;29;20079;-64
2022/07/26 11:21:58;;;;;;;4.85;4.65;;;;;;;-141.48;100.00;69781.59;4970872;29;20046;-64
2022/07/26 11:24:29;;;;;;;11.43;6.28;;;;;;;-141.48;100.00;69781.59;4969666;29;20087;-64
2022/07/26 11:27:03;;;;;;;13.20;6.95;;;;;;;-141.48;100.00;69781.59;4970258;29;20076;-71
2022/07/26 11:29:36;;;;;;;6.13;5.72;;;;;;;-141.48;100.00;69781.59;4970124;29;20058;-64